Home > Products > Valid Products > TAF

000
FTUS44 KTSA 242300
TAFFSM
TAF
KFSM 242320Z 2500/2524 VRB03KT P6SM SKC
     FM251600 25005KT P6SM SKC=



000
FTUS44 KTSA 242300
TAFMLC
TAF
KMLC 242320Z 2500/2524 18006KT P6SM SKC
     FM251500 21008KT P6SM SKC=



000
FTUS44 KTSA 242300
TAFXNA
TAF
KXNA 242320Z 2500/2524 20006KT P6SM SKC
     FM251500 23005KT P6SM SKC=



000
FTUS44 KTSA 242300
TAFRVS
TAF
KRVS 242320Z 2500/2524 20008KT P6SM SCT250
     FM251500 19005KT P6SM SKC=



000
FTUS44 KTSA 242300
TAFFYV
TAF
KFYV 242320Z 2500/2524 19007KT P6SM SKC
     FM251500 23005KT P6SM SKC=



000
FTUS44 KTSA 242300
TAFTUL
TAF
KTUL 242320Z 2500/2524 18008KT P6SM SCT250
     FM251500 19005KT P6SM SKC=



000
FTUS44 KTSA 241700
TAFTUL
TAF
KTUL 241720Z 2418/2518 19011KT P6SM BKN250
     FM250000 17005KT P6SM SCT250=



000
FTUS44 KTSA 241700
TAFFYV
TAF
KFYV 241720Z 2418/2518 21010KT P6SM SCT250
     FM250000 21004KT P6SM SCT250=



000
FTUS44 KTSA 241700
TAFRVS
TAF
KRVS 241720Z 2418/2518 19008KT P6SM BKN250
     FM250000 00000KT P6SM SCT250
     FM251500 19005KT P6SM SKC=



000
FTUS44 KTSA 241700
TAFXNA
TAF
KXNA 241720Z 2418/2518 22010KT P6SM SCT250
     FM250000 21005KT P6SM SCT250=



000
FTUS44 KTSA 241700
TAFMLC
TAF
KMLC 241720Z 2418/2518 19010KT P6SM FEW250
     FM250000 18003KT P6SM FEW250
     FM251500 21008KT P6SM SKC=



000
FTUS44 KTSA 241700
TAFFSM
TAF
KFSM 241720Z 2418/2518 03005KT P6SM SCT250
     FM242000 21006KT P6SM SCT250
     FM250000 VRB02KT P6SM SCT250
     FM251600 25005KT P6SM SKC=



000
FTUS44 KTSA 241400 AAA
TAFXNA
TAF AMD
KXNA 241406Z 2414/2512 18008KT P6SM SCT250
     FM250000 22003KT P6SM SKC=



000
FTUS44 KTSA 241400 AAA
TAFXNA
TAF AMD
KXNA 241406Z 2414/2512 18008KT P6SM SCT250
     FM250000 22003KT P6SM SKC=



000
FTUS44 KTSA 241300 AAA
TAFRVS
TAF AMD
KRVS 241343Z 2414/2512 18007KT P6SM SCT250
     FM250100 00000KT P6SM SKC=



000
FTUS44 KTSA 241300 AAA
TAFFYV
TAF AMD
KFYV 241343Z 2414/2512 00000KT P6SM SCT250
     FM241500 20008KT P6SM SCT250
     FM250000 21002KT P6SM SKC=



000
FTUS44 KTSA 241100
TAFXNA
TAF
KXNA 241120Z 2412/2512 00000KT 4SM BR SCT050
      TEMPO 2412/2413 2SM BR
     FM241500 20008KT P6SM SCT250
     FM250000 22003KT P6SM SKC=



000
FTUS44 KTSA 241100
TAFTUL
TAF
KTUL 241120Z 2412/2512 16003KT P6SM BKN050
     FM241500 18010KT P6SM SCT250
     FM250200 17005KT P6SM SKC=



000
FTUS44 KTSA 241100
TAFFYV
TAF
KFYV 241120Z 2412/2512 00000KT 4SM BR SCT050
      TEMPO 2412/2413 3SM BR
     FM241500 20008KT P6SM SCT250
     FM250000 21002KT P6SM SKC=



000
FTUS44 KTSA 241100
TAFRVS
TAF
KRVS 241120Z 2412/2512 15003KT P6SM BKN050
      TEMPO 2412/2414 3SM BR
     FM241500 18007KT P6SM SCT250
     FM250100 00000KT P6SM SKC=



000
FTUS44 KTSA 241100
TAFMLC
TAF
KMLC 241120Z 2412/2512 00000KT P6SM SCT070
     FM241500 18008KT P6SM SCT250
     FM250000 18003KT P6SM SKC=



000
FTUS44 KTSA 241100
TAFFSM
TAF
KFSM 241120Z 2412/2512 05003KT P6SM SCT050
      TEMPO 2412/2413 4SM BR
     FM241700 23006KT P6SM SCT250
     FM250000 22003KT P6SM SKC=



000
FTUS44 KTSA 240700 AAA
TAFFYV
TAF AMD
KFYV 240701Z 2407/2506 00000KT 3SM BR SCT050
      TEMPO 2409/2413 1SM BR BKN003
     FM241500 20008KT P6SM SCT250
     FM250000 21002KT P6SM SKC=



000
FTUS44 KTSA 240500 AAA
TAFXNA
TAF AMD
KXNA 240541Z 2406/2506 24003KT P6SM SCT050
      TEMPO 2406/2409 3/4SM BR
     FM240900 00000KT 4SM BR SCT050
      TEMPO 2409/2413 1SM BR BKN003
     FM241500 20008KT P6SM SCT250
     FM250000 22003KT P6SM SKC=



000
FTUS44 KTSA 240500
TAFRVS
TAF
KRVS 240520Z 2406/2506 15003KT P6SM BKN060
      TEMPO 2409/2413 3SM BR
     FM241500 18007KT P6SM SCT250
     FM250100 00000KT P6SM SKC=



000
FTUS44 KTSA 240500
TAFTUL
TAF
KTUL 240520Z 2406/2506 16003KT P6SM BKN060
     FM241500 18010KT P6SM SCT250
     FM250200 17005KT P6SM SKC=



000
FTUS44 KTSA 240500
TAFFSM
TAF
KFSM 240520Z 2406/2506 05003KT P6SM SCT050
      TEMPO 2410/2413 4SM BR
     FM241700 23006KT P6SM SCT250
     FM250000 22003KT P6SM SKC=



000
FTUS44 KTSA 240500
TAFMLC
TAF
KMLC 240520Z 2406/2506 00000KT P6SM SCT070
     FM241500 18008KT P6SM SCT250
     FM250000 18003KT P6SM SKC=



000
FTUS44 KTSA 240500
TAFFYV
TAF
KFYV 240520Z 2406/2506 15003KT P6SM SCT050
     FM240800 00000KT 4SM BR SCT050
      TEMPO 2409/2413 1SM BR BKN003
     FM241500 20008KT P6SM SCT250
     FM250000 21002KT P6SM SKC=



000
FTUS44 KTSA 240500
TAFXNA
TAF
KXNA 240520Z 2406/2506 24003KT P6SM SCT050
     FM240900 00000KT 4SM BR SCT050
      TEMPO 2409/2413 1SM BR BKN003
     FM241500 20008KT P6SM SCT250
     FM250000 22003KT P6SM SKC=



000
FTUS44 KTSA 232300
TAFFSM
TAF
KFSM 232334Z 2400/2424 10004KT P6SM BKN050
     FM240200 12002KT P6SM SCT250
      TEMPO 2410/2413 4SM BR
     FM241700 23006KT P6SM SKC=



000
FTUS44 KTSA 232300
TAFFYV
TAF
KFYV 232334Z 2400/2424 13003KT P6SM SCT045 SCT250
     FM240300 00000KT P6SM SCT250
     FM240900 00000KT 4SM BR SCT250
      TEMPO 2409/2413 2SM BR SCT003
     FM241500 20008KT P6SM SKC=



000
FTUS44 KTSA 232300
TAFRVS
TAF
KRVS 232334Z 2400/2424 17006KT P6SM BKN250
     FM240600 00000KT P6SM SCT045 SCT250
      TEMPO 2409/2413 4SM BR
     FM241500 18007KT P6SM SKC=



000
FTUS44 KTSA 232300
TAFMLC
TAF
KMLC 232334Z 2400/2424 14003KT P6SM SCT250
     FM241500 18008KT P6SM SKC=



000
FTUS44 KTSA 232300
TAFTUL
TAF
KTUL 232334Z 2400/2424 14008KT P6SM BKN250
     FM240600 16004KT P6SM SCT045 SCT250
     FM241500 18010KT P6SM SKC=



000
FTUS44 KTSA 232300
TAFXNA
TAF
KXNA 232334Z 2400/2424 16004KT P6SM OVC045
     FM240200 18004KT P6SM SCT250
     FM240900 00000KT 4SM BR SCT250
      TEMPO 2409/2413 2SM BR SCT003
     FM241500 20008KT P6SM SKC=



000
FTUS44 KTSA 232000 AAB
TAFMLC
TAF AMD
KMLC 232059Z 2321/2418 VRB04KT P6SM SCT090
     FM240800 18003KT 5SM BR SCT050
     FM241400 19007KT P6SM SKC=



000
FTUS44 KTSA 232000 AAA
TAFXNA
TAF AMD
KXNA 232059Z 2321/2418 16007KT P6SM OVC045
     FM240000 VRB03KT P6SM BKN050
     FM240700 VRB03KT 2SM BR SCT050
     FM241400 19005KT P6SM SCT050=



000
FTUS44 KTSA 232000 AAA
TAFRVS
TAF AMD
KRVS 232058Z 2321/2418 18007KT P6SM BKN050
     FM240000 17004KT P6SM SCT050
     FM240700 18004KT 3SM BR BKN040
     FM241400 19007KT P6SM SKC=



000
FTUS44 KTSA 232000 AAA
TAFTUL
TAF AMD
KTUL 232058Z 2321/2418 18007KT P6SM BKN050 BKN250
     FM240000 17004KT P6SM SCT050
     FM240700 18004KT 4SM BR BKN040
     FM241400 19008KT P6SM SKC=



000
FTUS44 KTSA 231800 AAA
TAFMLC
TAF AMD
KMLC 231847Z 2319/2418 17005KT P6SM BKN060
      TEMPO 2319/2321 3SM -SHRA BR
     FM240000 17003KT P6SM SCT050
     FM240800 18003KT 5SM BR SCT050
     FM241400 19007KT P6SM SKC=



000
FTUS44 KTSA 231800 AAA
TAFMLC
TAF AMD
KMLC 231847Z 2319/2418 17005KT P6SM BKN060
      TEMPO 2319/2321 3SM -SHRA BR
     FM240000 17003KT P6SM SCT050
     FM240800 18003KT 5SM BR SCT050
     FM241400 19007KT P6SM SKC=



000
FTUS44 KTSA 231700
TAFMLC
TAF
KMLC 231720Z 2318/2418 17005KT P6SM BKN060
      TEMPO 2318/2320 5SM -SHRA BR
     FM240000 17003KT P6SM SCT050
     FM240800 18003KT 5SM BR SCT050
     FM241400 19007KT P6SM SKC=



000
FTUS44 KTSA 231700
TAFXNA
TAF
KXNA 231720Z 2318/2418 19005KT P6SM BKN060
      TEMPO 2318/2321 4SM -SHRA BR BKN020
     FM240000 VRB03KT P6SM BKN050
     FM240700 VRB03KT 2SM BR SCT050
     FM241400 19005KT P6SM SCT050=



000
FTUS44 KTSA 231700
TAFFYV
TAF
KFYV 231720Z 2318/2418 19005KT P6SM BKN060
      TEMPO 2318/2321 4SM -SHRA BR BKN020
     FM240000 VRB03KT P6SM BKN050
     FM240700 VRB03KT 2SM BR SCT050
     FM241400 19005KT P6SM SCT050=



000
FTUS44 KTSA 231700
TAFRVS
TAF
KRVS 231720Z 2318/2418 18007KT P6SM BKN020 BKN050
     FM240000 17004KT P6SM SCT050
     FM240700 18004KT 3SM BR BKN040
     FM241400 19007KT P6SM SKC=



000
FTUS44 KTSA 231700
TAFFSM
TAF
KFSM 231720Z 2318/2418 08006KT P6SM BKN080
      TEMPO 2319/2322 5SM -SHRA BR BKN030
     FM240000 VRB02KT P6SM SCT050
     FM240800 VRB02KT 4SM BR SCT050
     FM241400 VRB04KT P6SM SKC=



000
FTUS44 KTSA 231700
TAFTUL
TAF
KTUL 231720Z 2318/2418 18008KT P6SM BKN020 BKN050
     FM240000 17004KT P6SM SCT050
     FM240700 18004KT 4SM BR BKN040
     FM241400 19008KT P6SM SKC=



000
FTUS44 KTSA 231500 AAA
TAFRVS
TAF AMD
KRVS 231508Z 2315/2412 17007KT P6SM BKN060
      TEMPO 2315/2317 4SM -SHRA BR BKN030
     FM240000 00000KT P6SM SCT050
     FM240800 00000KT 5SM BR SCT050=



000
FTUS44 KTSA 231500 AAB
TAFTUL
TAF AMD
KTUL 231507Z 2315/2412 17008KT P6SM BKN060
      TEMPO 2315/2317 2SM -SHRA BR BKN030
     FM240000 16004KT P6SM SCT050=



000
FTUS44 KTSA 231500 AAA
TAFTUL
TAF AMD
KTUL 231502Z 2315/2412 17008KT P6SM BKN060
      TEMPO 2315/2317 2SM -SHRA BR
     FM240000 16004KT P6SM SCT050=



000
FTUS44 KTSA 231300 AAA
TAFMLC
TAF AMD
KMLC 231351Z 2314/2412 17005KT P6SM BKN060
      TEMPO 2314/2317 5SM -SHRA BR
     FM240000 00000KT P6SM SCT050
     FM240900 00000KT 5SM BR SCT050=



000
FTUS44 KTSA 231300 AAA
TAFXNA
TAF AMD
KXNA 231348Z 2314/2412 18005KT P6SM BKN080
      TEMPO 2314/2317 4SM -SHRA BR
     FM240000 00000KT P6SM SCT050
     FM240600 00000KT 2SM BR SCT050=



000
FTUS44 KTSA 231300 AAA
TAFFYV
TAF AMD
KFYV 231347Z 2314/2412 19005KT P6SM BKN080
      TEMPO 2314/2317 4SM -SHRA BR
     FM240000 00000KT P6SM SCT050
     FM240600 00000KT 2SM BR SCT050=



000
FTUS44 KTSA 231100
TAFFSM
TAF
KFSM 231127Z 2312/2412 08004KT P6SM BKN090
     FM240000 00000KT P6SM SCT050
     FM240800 00000KT 4SM BR SCT050=



000
FTUS44 KTSA 231100
TAFXNA
TAF
KXNA 231127Z 2312/2412 18005KT P6SM BKN080
     FM240000 00000KT P6SM SCT050
     FM240600 00000KT 2SM BR SCT050=



000
FTUS44 KTSA 231100
TAFTUL
TAF
KTUL 231127Z 2312/2412 17008KT P6SM BKN060
      TEMPO 2312/2316 5SM -SHRA BR
     FM240000 16004KT P6SM SCT050=



000
FTUS44 KTSA 231100
TAFFYV
TAF
KFYV 231127Z 2312/2412 19005KT P6SM BKN080
     FM240000 00000KT P6SM SCT050
     FM240600 00000KT 2SM BR SCT050=



000
FTUS44 KTSA 231100
TAFMLC
TAF
KMLC 231127Z 2312/2412 17005KT P6SM BKN060
     FM240000 00000KT P6SM SCT050
     FM240900 00000KT 5SM BR SCT050=



000
FTUS44 KTSA 231100
TAFRVS
TAF
KRVS 231127Z 2312/2412 17007KT P6SM BKN060
      TEMPO 2312/2316 5SM -SHRA BR
     FM240000 00000KT P6SM SCT050
     FM240800 00000KT 5SM BR SCT050=



000
FTUS44 KTSA 230500
TAFRVS
TAF
KRVS 230520Z 2306/2406 16007KT P6SM SCT100 BKN150
      TEMPO 2306/2309 5SM -SHRA BR BKN040
     FM230900 15003KT P6SM VCSH BKN040
     FM231200 18006KT P6SM BKN050
     FM232100 18006KT P6SM SCT250
     FM240000 18002KT P6SM SKC=



000
FTUS44 KTSA 230500
TAFTUL
TAF
KTUL 230520Z 2306/2406 16014G19KT P6SM SCT100 BKN150
      TEMPO 2306/2309 5SM -SHRA BR BKN040
     FM230900 17005KT P6SM VCSH BKN040
     FM231200 18007KT P6SM BKN050
     FM232100 18007KT P6SM SCT250=



000
FTUS44 KTSA 230500
TAFFSM
TAF
KFSM 230520Z 2306/2406 05004KT P6SM SCT150
     FM230800 07003KT P6SM SCT150 BKN250
     FM231500 09005KT P6SM SCT050 BKN100=



000
FTUS44 KTSA 230500
TAFMLC
TAF
KMLC 230520Z 2306/2406 00000KT P6SM SCT100
     FM230700 14003KT P6SM VCSH SCT050 BKN100
     FM231200 18006KT P6SM SCT050 BKN100
     FM232100 19006KT P6SM SCT250=



000
FTUS44 KTSA 230500
TAFFYV
TAF
KFYV 230520Z 2306/2406 00000KT P6SM SCT150
     FM230900 00000KT P6SM BKN150
     FM231200 17004KT P6SM SCT050 BKN100
     FM240000 00000KT P6SM SCT250=



000
FTUS44 KTSA 230500
TAFXNA
TAF
KXNA 230520Z 2306/2406 17004KT P6SM SCT150
     FM230900 00000KT P6SM BKN150
     FM231200 17005KT P6SM SCT050 BKN100
     FM240000 18003KT P6SM SCT250=



000
FTUS44 KTSA 230300 AAA
TAFMLC
TAF AMD
KMLC 230337Z 2304/2324 12003KT P6SM BKN100
     FM230700 14003KT P6SM VCSH SCT050 BKN100
     FM231400 18006KT P6SM SCT050 BKN100=



000
FTUS44 KTSA 230300 AAA
TAFMLC
TAF AMD
KMLC 230337Z 2304/2324 12003KT P6SM BKN100
     FM230700 14003KT P6SM VCSH SCT050 BKN100
     FM231400 18006KT P6SM SCT050 BKN100=



000
FTUS44 KTSA 230300 AAA
TAFRVS
TAF AMD
KRVS 230336Z 2304/2324 15007KT P6SM BKN100
      TEMPO 2305/2309 5SM -SHRA BR BKN050
     FM230900 15003KT P6SM VCSH BKN040
     FM231500 18006KT P6SM BKN050=



000
FTUS44 KTSA 230300 AAA
TAFTUL
TAF AMD
KTUL 230336Z 2304/2324 16009KT P6SM FEW100 OVC200
      TEMPO 2305/2309 5SM -SHRA BR BKN050
     FM230900 17005KT P6SM VCSH BKN040
     FM231500 18007KT P6SM BKN050=



000
FTUS44 KTSA 230300 AAA
TAFRVS
TAF AMD
KRVS 230336Z 2304/2324 15007KT P6SM BKN100
      TEMPO 2305/2309 5SM -SHRA BR BKN050
     FM230900 15003KT P6SM VCSH BKN040
     FM231500 18006KT P6SM BKN050=



000
FTUS44 KTSA 222300
TAFTUL
TAF
KTUL 222322Z 2300/2324 15008KT P6SM SCT040
     FM230600 15006KT P6SM SCT050 OVC100
      TEMPO 2307/2311 5SM -SHRA BR BKN050
     FM231100 17005KT P6SM VCSH BKN040
     FM231600 18007KT P6SM BKN050=



000
FTUS44 KTSA 222300
TAFRVS
TAF
KRVS 222322Z 2300/2324 17008KT P6SM SKC
     FM230600 15003KT P6SM SCT050 OVC100
      TEMPO 2307/2311 5SM -SHRA BR BKN050
     FM231100 15003KT P6SM VCSH BKN040
     FM231600 18006KT P6SM BKN050=



000
FTUS44 KTSA 222300
TAFFSM
TAF
KFSM 222322Z 2300/2324 08011KT P6SM SKC
     FM230800 07003KT P6SM SCT150 BKN250
     FM231500 09005KT P6SM SCT050 BKN100=



000
FTUS44 KTSA 222300
TAFXNA
TAF
KXNA 222322Z 2300/2324 10004KT P6SM SCT050
     FM231000 00000KT P6SM BKN150
     FM231400 17004KT P6SM VCSH SCT050 BKN100
     FM231800 18005KT P6SM SCT050 BKN100=



000
FTUS44 KTSA 222300
TAFFYV
TAF
KFYV 222322Z 2300/2324 00000KT P6SM SCT050
     FM231000 00000KT P6SM BKN150
     FM231400 17004KT P6SM VCSH SCT050 BKN100
     FM231800 18005KT P6SM SCT050 BKN100=



000
FTUS44 KTSA 222300
TAFMLC
TAF
KMLC 222322Z 2300/2324 10004KT P6SM SKC
     FM230600 15003KT P6SM SCT050 BKN100
     FM231000 14003KT P6SM VCSH SCT050 BKN100
     FM231600 18006KT P6SM SCT050 BKN100=



000
FTUS44 KTSA 221700
TAFXNA
TAF
KXNA 221720Z 2218/2318 15007KT P6SM SCT050
     FM230000 00000KT P6SM BKN250
     FM231000 00000KT P6SM BKN150
     FM231500 17004KT P6SM VCSH SCT050 OVC100=



000
FTUS44 KTSA 221700
TAFFSM
TAF
KFSM 221720Z 2218/2318 08006KT P6SM FEW050
     FM230000 07003KT P6SM BKN250
     FM231100 07003KT P6SM SCT150 BKN250
     FM231500 09005KT P6SM SCT050 OVC100=



000
FTUS44 KTSA 221700
TAFTUL
TAF
KTUL 221720Z 2218/2318 17010KT P6SM SCT040
     FM230000 14007KT P6SM BKN250
     FM230800 15006KT P6SM SCT050 OVC100 PROB30 2308/2312 5SM -SHRA
      BR BKN050
     FM231200 15006KT P6SM VCSH OVC040=



000
FTUS44 KTSA 221700
TAFXNA
TAF
KXNA 221720Z 2218/2318 15007KT P6SM SCT050
     FM230000 00000KT P6SM BKN250
     FM231000 00000KT P6SM BKN150
     FM231500 17004KT P6SM VCSH SCT050 OVC100=



000
FTUS44 KTSA 221700
TAFMLC
TAF
KMLC 221720Z 2218/2318 16007KT P6SM SCT040
     FM230000 12004KT P6SM BKN250
     FM231000 14003KT P6SM SCT050 OVC120 PROB30 2312/2316 5SM -SHRA
      BR BKN050=



000
FTUS44 KTSA 221700
TAFFYV
TAF
KFYV 221720Z 2218/2318 16007KT P6SM SCT050
     FM230000 00000KT P6SM BKN250
     FM231000 00000KT P6SM BKN150
     FM231500 17004KT P6SM VCSH SCT050 OVC100=



000
FTUS44 KTSA 221700
TAFRVS
TAF
KRVS 221720Z 2218/2318 17009KT P6SM SCT040
     FM230000 14004KT P6SM BKN250
     FM230800 15003KT P6SM SCT050 OVC100 PROB30 2308/2312 5SM -SHRA
      BR BKN050
     FM231200 15003KT P6SM VCSH OVC040=



000
FTUS44 KTSA 221700
TAFFSM
TAF
KFSM 221720Z 2218/2318 08006KT P6SM FEW050
     FM230000 07003KT P6SM BKN250
     FM231100 07003KT P6SM SCT150 BKN250
     FM231500 09005KT P6SM SCT050 OVC100=



000
FTUS44 KTSA 221700
TAFTUL
TAF
KTUL 221720Z 2218/2318 17010KT P6SM SCT040
     FM230000 14007KT P6SM BKN250
     FM230800 15006KT P6SM SCT050 OVC100 PROB30 2308/2312 5SM -SHRA
      BR BKN050
     FM231200 15006KT P6SM VCSH OVC040=



000
FTUS44 KTSA 221700
TAFRVS
TAF
KRVS 221720Z 2218/2318 17009KT P6SM SCT040
     FM230000 14004KT P6SM BKN250
     FM230800 15003KT P6SM SCT050 OVC100 PROB30 2308/2312 5SM -SHRA
      BR BKN050
     FM231200 15003KT P6SM VCSH OVC040=



000
FTUS44 KTSA 221700
TAFFYV
TAF
KFYV 221720Z 2218/2318 16007KT P6SM SCT050
     FM230000 00000KT P6SM BKN250
     FM231000 00000KT P6SM BKN150
     FM231500 17004KT P6SM VCSH SCT050 OVC100=



000
FTUS44 KTSA 221700
TAFMLC
TAF
KMLC 221720Z 2218/2318 16007KT P6SM SCT040
     FM230000 12004KT P6SM BKN250
     FM231000 14003KT P6SM SCT050 OVC120 PROB30 2312/2316 5SM -SHRA
      BR BKN050=



000
FTUS44 KTSA 221300 AAA
TAFRVS
TAF AMD
KRVS 221334Z 2214/2312 15003KT 3SM BR SCT060
     FM221500 15009KT P6SM SCT060 SCT250
     FM230000 14004KT P6SM BKN250
     FM230800 15003KT P6SM SCT050 BKN150 PROB30 2308/2312 5SM -SHRA
      BR BKN050=



000
FTUS44 KTSA 221100
TAFRVS
TAF
KRVS 221132Z 2212/2312 15003KT 3SM BR SCT060
      TEMPO 2212/2214 1/2SM FG BKN010
     FM221500 15009KT P6SM SCT060 SCT250
     FM230000 14004KT P6SM BKN250
     FM230800 15003KT P6SM SCT050 BKN150 PROB30 2308/2312 5SM -SHRA
      BR BKN050=



000
FTUS44 KTSA 221100
TAFTUL
TAF
KTUL 221132Z 2212/2312 14005KT P6SM SCT060
      TEMPO 2212/2215 5SM BR
     FM221500 15009KT P6SM SCT060 SCT250
     FM230000 14007KT P6SM BKN250
     FM230800 15006KT P6SM SCT050 BKN150 PROB30 2308/2312 5SM -SHRA
      BR BKN050=



000
FTUS44 KTSA 221100
TAFFYV
TAF
KFYV 221132Z 2212/2312 14003KT P6SM SCT060
      TEMPO 2212/2215 5SM BR SCT002
     FM221500 14007KT P6SM SCT060 SCT250
     FM230000 00000KT P6SM BKN250
     FM231000 00000KT P6SM BKN150=



000
FTUS44 KTSA 221100
TAFFSM
TAF
KFSM 221132Z 2212/2312 07005KT P6SM SCT060
      TEMPO 2212/2215 5SM BR
     FM221500 08006KT P6SM SCT060 SCT250
     FM230000 07003KT P6SM BKN250
     FM231100 07003KT P6SM SCT150 BKN250=



000
FTUS44 KTSA 221100
TAFMLC
TAF
KMLC 221132Z 2212/2312 13003KT P6SM SCT060
      TEMPO 2212/2215 5SM BR
     FM221500 14006KT P6SM SCT060 SCT250
     FM230000 12004KT P6SM BKN250
     FM231000 14003KT P6SM SCT050 BKN150=



000
FTUS44 KTSA 221100
TAFXNA
TAF
KXNA 221132Z 2212/2312 12003KT P6SM SCT060
      TEMPO 2212/2215 5SM BR SCT002
     FM221500 14007KT P6SM SCT060 SCT250
     FM230000 14003KT P6SM BKN250
     FM231000 14003KT P6SM BKN150=



000
FTUS44 KTSA 220500
TAFTUL
TAF
KTUL 220520Z 2206/2306 15007KT P6SM SKC
      TEMPO 2207/2211 3SM BR
     FM222100 15010KT P6SM BKN250=



000
FTUS44 KTSA 220500
TAFFSM
TAF
KFSM 220520Z 2206/2306 08005KT P6SM SKC=



000
FTUS44 KTSA 220500
TAFFYV
TAF
KFYV 220520Z 2206/2306 00000KT 5SM BR SKC
      TEMPO 2207/2211 2SM BR
     FM221200 00000KT P6SM SKC
     FM221500 15007KT P6SM SKC
     FM230000 13002KT P6SM FEW250=



000
FTUS44 KTSA 220500
TAFMLC
TAF
KMLC 220520Z 2206/2306 00000KT 6SM BR FEW070
      TEMPO 2206/2210 2SM BR
     FM221200 15006KT P6SM SKC=



000
FTUS44 KTSA 220500
TAFXNA
TAF
KXNA 220520Z 2206/2306 00000KT P6SM SKC
     FM220700 00000KT 5SM BR SKC
      TEMPO 2207/2211 2SM BR
     FM221200 00000KT P6SM SKC
     FM221500 15007KT P6SM SKC
     FM230000 13002KT P6SM FEW250=



000
FTUS44 KTSA 220500
TAFRVS
TAF
KRVS 220520Z 2206/2306 00000KT 5SM BR SKC
      TEMPO 2206/2210 2SM BR
     FM221500 15005KT P6SM FEW250
     FM222100 15010KT P6SM BKN250=



000
FTUS44 KTSA 220500
TAFXNA
TAF
KXNA 220520Z 2206/2306 00000KT P6SM SKC
     FM220700 00000KT 5SM BR SKC
      TEMPO 2207/2211 2SM BR
     FM221200 00000KT P6SM SKC
     FM221500 15007KT P6SM SKC
     FM230000 13002KT P6SM FEW250=



000
FTUS44 KTSA 220500
TAFFSM
TAF
KFSM 220520Z 2206/2306 08005KT P6SM SKC=



000
FTUS44 KTSA 220500
TAFMLC
TAF
KMLC 220520Z 2206/2306 00000KT 6SM BR FEW070
      TEMPO 2206/2210 2SM BR
     FM221200 15006KT P6SM SKC=



000
FTUS44 KTSA 220500
TAFRVS
TAF
KRVS 220520Z 2206/2306 00000KT 5SM BR SKC
      TEMPO 2206/2210 2SM BR
     FM221500 15005KT P6SM FEW250
     FM222100 15010KT P6SM BKN250=



000
FTUS44 KTSA 220500
TAFFYV
TAF
KFYV 220520Z 2206/2306 00000KT 5SM BR SKC
      TEMPO 2207/2211 2SM BR
     FM221200 00000KT P6SM SKC
     FM221500 15007KT P6SM SKC
     FM230000 13002KT P6SM FEW250=



000
FTUS44 KTSA 220500
TAFTUL
TAF
KTUL 220520Z 2206/2306 15007KT P6SM SKC
      TEMPO 2207/2211 3SM BR
     FM222100 15010KT P6SM BKN250=



    US Dept of Commerce
    National Oceanic and Atmospheric Administration
    National Weather Service
    1325 East West Highway
    Silver Spring, MD 20910
    Page Author: NWS Internet Services Team
Disclaimer
Information Quality
Credits
Glossary
Privacy Policy
Freedom of Information Act (FOIA)
About Us
Career Opportunities